Time;durP1;ratioP1;P1;durP2;ratioP2;P2;SDS_P1;SDS_P2;PMS_P1;PMS_P2;Temp;Humidity;BMP_temperature;BMP_pressure;BME280_temperature;BME280_humidity;BME280_pressure;Samples;Min_cycle;Max_cycle;Signal;HPM_P1;HPM_P2
2023/09/17 00:01:05;;;;;;;27.73;25.23;;;17.70;99.90;;;;;;5066763;28;20048;-72
2023/09/17 00:03:32;;;;;;;28.98;26.30;;;17.60;99.90;;;;;;5088651;28;20052;-72
2023/09/17 00:05:58;;;;;;;28.00;25.40;;;17.60;99.90;;;;;;5072258;28;20479;-72
2023/09/17 00:08:24;;;;;;;27.10;24.65;;;17.60;99.90;;;;;;5067148;28;20048;-72
2023/09/17 00:10:49;;;;;;;29.35;25.45;;;17.60;99.90;;;;;;5088036;28;20039;-72
2023/09/17 00:13:16;;;;;;;27.35;24.85;;;17.60;99.90;;;;;;5070505;28;20425;-72
2023/09/17 00:15:42;;;;;;;26.23;23.85;;;17.60;99.90;;;;;;5058521;28;20127;-72
2023/09/17 00:18:07;;;;;;;25.98;23.58;;;17.60;99.90;;;;;;5067392;28;20178;-72
2023/09/17 00:20:33;;;;;;;25.00;22.67;;;17.60;99.90;;;;;;5089842;28;20052;-72
2023/09/17 00:23:00;;;;;;;26.52;24.13;;;17.60;99.90;;;;;;5069168;28;20024;-72
2023/09/17 00:25:26;;;;;;;24.58;22.48;;;17.60;99.90;;;;;;5050730;28;20048;-72
2023/09/17 00:27:52;;;;;;;25.30;23.00;;;17.60;99.90;;;;;;5065266;28;20487;-72
2023/09/17 00:30:18;;;;;;;24.60;22.40;;;17.60;99.90;;;;;;5069057;28;20049;-72
2023/09/17 00:32:45;;;;;;;23.83;21.55;;;17.60;99.90;;;;;;5081737;28;20043;-72
2023/09/17 00:35:14;;;;;;;26.35;23.85;;;17.60;99.90;;;;;;5061978;28;20032;-72
2023/09/17 00:37:40;;;;;;;25.17;22.95;;;17.60;99.90;;;;;;5062186;28;20133;-72
2023/09/17 00:40:09;;;;;;;24.35;22.25;;;17.60;99.90;;;;;;5070431;28;20085;-72
2023/09/17 00:42:36;;;;;;;25.17;22.70;;;17.60;99.90;;;;;;5071587;28;20055;-72
2023/09/17 00:45:02;;;;;;;25.33;22.83;;;17.60;99.90;;;;;;5071079;28;20411;-72
2023/09/17 00:47:29;;;;;;;26.63;24.23;;;17.60;99.90;;;;;;5070961;28;20044;-72
2023/09/17 00:49:55;;;;;;;25.63;23.42;;;17.60;99.90;;;;;;5065142;28;20056;-72
2023/09/17 00:52:21;;;;;;;27.52;24.75;;;17.60;99.90;;;;;;5067378;28;20059;-72
2023/09/17 00:54:50;;;;;;;28.52;25.90;;;17.50;99.90;;;;;;5070594;28;20062;-72
2023/09/17 00:57:16;;;;;;;28.80;26.30;;;17.60;99.90;;;;;;5069032;28;20048;-72
2023/09/17 00:59:46;;;;;;;27.05;24.60;;;17.50;99.90;;;;;;5067674;28;20127;-72
2023/09/17 01:02:13;;;;;;;27.60;25.15;;;17.60;99.90;;;;;;5069978;28;20074;-72
2023/09/17 01:04:42;;;;;;;28.17;25.57;;;17.50;99.90;;;;;;5056091;28;20061;-72
2023/09/17 01:07:09;;;;;;;29.80;27.15;;;17.50;99.90;;;;;;5069300;28;20310;-72
2023/09/17 01:09:38;;;;;;;28.02;25.55;;;17.50;99.90;;;;;;5078184;28;20390;-72
2023/09/17 01:12:05;;;;;;;28.13;25.63;;;17.50;99.90;;;;;;5068003;28;20056;-72
2023/09/17 01:14:33;;;;;;;27.90;25.40;;;17.50;99.90;;;;;;5065599;28;20514;-72
2023/09/17 01:17:00;;;;;;;28.10;25.63;;;17.50;99.90;;;;;;5068581;28;20097;-72
2023/09/17 01:19:28;;;;;;;;;;;17.50;99.90;;;;;;5051850;28;20044;-73
2023/09/17 01:22:20;;;;;;;28.98;26.25;;;17.40;99.90;;;;;;5065870;28;19958;-72
2023/09/17 01:25:06;;;;;;;29.15;26.38;;;17.40;99.90;;;;;;5069727;28;20121;-72
2023/09/17 01:27:39;;;;;;;29.27;26.60;;;17.40;99.90;;;;;;5060817;28;20040;-72
2023/09/17 01:30:10;;;;;;;30.58;27.65;;;17.40;99.90;;;;;;5065225;28;20032;-72
2023/09/17 01:32:38;;;;;;;29.33;26.73;;;17.30;99.90;;;;;;5063290;28;20553;-72
2023/09/17 01:35:04;;;;;;;;;;;17.30;99.90;;;;;;5083036;28;20044;-72
2023/09/17 01:37:34;;;;;;;31.02;28.17;;;17.30;99.90;;;;;;5067821;28;19924;-72
2023/09/17 01:40:07;;;;;;;30.00;27.38;;;17.30;99.90;;;;;;5068161;28;20105;-72
2023/09/17 01:42:34;;;;;;;29.30;26.63;;;17.20;99.90;;;;;;5068319;28;20572;-72
2023/09/17 01:45:01;;;;;;;31.33;28.27;;;17.30;99.90;;;;;;5068362;28;20032;-72
2023/09/17 01:47:28;;;;;;;31.08;28.33;;;17.30;99.90;;;;;;5066058;28;20407;-72
2023/09/17 01:49:57;;;;;;;30.23;27.52;;;17.30;99.90;;;;;;5059014;28;20039;-72
2023/09/17 01:52:32;;;;;;;30.50;27.70;;;17.30;99.90;;;;;;5067045;28;20063;-72
2023/09/17 01:54:58;;;;;;;30.25;27.35;;;17.20;99.90;;;;;;5066877;28;20070;-72
2023/09/17 01:57:24;;;;;;;31.67;28.83;;;17.30;99.90;;;;;;5065985;28;20094;-72
2023/09/17 01:59:49;;;;;;;33.88;30.88;;;17.20;99.90;;;;;;5057546;28;20047;-72
2023/09/17 02:02:15;;;;;;;31.20;28.42;;;17.20;99.90;;;;;;5066902;28;20076;-72
2023/09/17 02:04:41;;;;;;;34.60;31.50;;;17.20;99.90;;;;;;5067332;28;20052;-72
2023/09/17 02:07:07;;;;;;;33.63;30.55;;;17.20;99.90;;;;;;5067801;28;20040;-73
2023/09/17 02:09:33;;;;;;;33.83;30.73;;;17.30;99.90;;;;;;5067782;28;20044;-72
2023/09/17 02:11:59;;;;;;;34.13;31.15;;;17.20;99.90;;;;;;5072367;28;20395;-72
2023/09/17 02:14:24;;;;;;;33.45;30.30;;;17.30;99.90;;;;;;5067599;28;20068;-70
2023/09/17 02:16:51;;;;;;;34.42;31.42;;;17.30;99.90;;;;;;5066339;28;20074;-72
2023/09/17 02:19:16;;;;;;;36.80;33.37;;;17.30;99.90;;;;;;5066686;28;20047;-71
2023/09/17 02:21:42;;;;;;;34.45;31.38;;;17.20;99.90;;;;;;5066326;28;20314;-71
2023/09/17 02:24:08;;;;;;;35.38;32.28;;;17.30;99.90;;;;;;5084266;28;20164;-71
2023/09/17 02:26:34;;;;;;;36.47;33.17;;;17.30;99.90;;;;;;5071609;28;20052;-71
2023/09/17 02:29:00;;;;;;;36.83;33.63;;;17.30;99.90;;;;;;5070536;28;20043;-71
2023/09/17 02:31:25;;;;;;;37.33;34.03;;;17.20;99.90;;;;;;5054158;28;20055;-71
2023/09/17 02:33:51;;;;;;;37.72;34.13;;;17.20;99.90;;;;;;5066903;28;20049;-71
2023/09/17 02:36:17;;;;;;;36.22;33.22;;;17.20;99.90;;;;;;5071838;28;20507;-71
2023/09/17 02:38:42;;;;;;;38.08;34.53;;;17.20;99.90;;;;;;5068315;28;20036;-71
2023/09/17 02:41:08;;;;;;;36.58;33.35;;;17.20;99.90;;;;;;5085289;28;20043;-71
2023/09/17 02:43:36;;;;;;;37.28;33.88;;;17.10;99.90;;;;;;5083432;28;20080;-72
2023/09/17 02:46:03;;;;;;;35.78;32.58;;;17.10;99.90;;;;;;5065160;28;20040;-71
2023/09/17 02:48:32;;;;;;;35.28;31.95;;;17.10;99.90;;;;;;5069961;28;20075;-72
2023/09/17 02:50:59;;;;;;;35.45;32.35;;;17.10;99.90;;;;;;5072584;28;20054;-71
2023/09/17 02:53:25;;;;;;;37.88;34.45;;;17.10;99.90;;;;;;5064569;28;20058;-71
2023/09/17 02:55:52;;;;;;;38.53;34.90;;;17.10;99.90;;;;;;5083503;28;20089;-71
2023/09/17 02:58:18;;;;;;;37.28;33.92;;;17.10;99.90;;;;;;5071191;28;20641;-71
2023/09/17 03:00:44;;;;;;;37.83;34.13;;;17.10;99.90;;;;;;5060489;28;20098;-71
2023/09/17 03:03:10;;;;;;;36.75;33.35;;;17.10;99.90;;;;;;5069180;28;20453;-72
2023/09/17 03:05:38;;;;;;;36.55;33.35;;;17.10;99.90;;;;;;5084689;28;20050;-72
2023/09/17 03:08:09;;;;;;;35.95;32.80;;;17.10;99.90;;;;;;5068419;28;20170;-72
2023/09/17 03:10:42;;;;;;;37.38;34.08;;;17.10;99.90;;;;;;5081528;28;20040;-71
2023/09/17 03:13:12;;;;;;;39.30;35.78;;;17.10;99.90;;;;;;5060204;28;20040;-71
2023/09/17 03:15:38;;;;;;;37.25;33.65;;;17.10;99.90;;;;;;5067924;28;20075;-71
2023/09/17 03:18:04;;;;;;;35.03;31.92;;;17.10;99.90;;;;;;5069855;28;20044;-71
2023/09/17 03:20:33;;;;;;;38.22;34.72;;;17.10;99.90;;;;;;5067053;28;20573;-72
2023/09/17 03:23:02;;;;;;;37.25;33.85;;;17.10;99.90;;;;;;5068097;28;20052;-71
2023/09/17 03:25:31;;;;;;;38.10;34.58;;;17.10;99.90;;;;;;5064444;28;20042;-71
2023/09/17 03:27:57;;;;;;;37.85;34.42;;;17.10;99.90;;;;;;5066777;28;20152;-72
2023/09/17 03:30:24;;;;;;;38.20;34.65;;;17.10;99.90;;;;;;5077947;28;20135;-71
2023/09/17 03:32:50;;;;;;;38.97;35.45;;;17.10;99.90;;;;;;5062341;28;20578;-71
2023/09/17 03:35:16;;;;;;;37.42;33.90;;;17.10;99.90;;;;;;5079409;28;20032;-71
2023/09/17 03:37:43;;;;;;;38.47;34.90;;;17.10;99.90;;;;;;5066315;28;20037;-71
2023/09/17 03:40:11;;;;;;;38.20;34.80;;;17.10;99.90;;;;;;5068835;28;20047;-71
2023/09/17 03:42:40;;;;;;;37.78;34.08;;;17.10;99.90;;;;;;5050513;28;20047;-71
2023/09/17 03:45:09;;;;;;;40.35;36.25;;;17.10;99.90;;;;;;5062803;28;20365;-72
2023/09/17 03:47:39;;;;;;;39.00;35.40;;;17.10;99.90;;;;;;5067780;28;20056;-71
2023/09/17 03:50:06;;;;;;;37.65;34.35;;;17.10;99.90;;;;;;5071038;28;20051;-71
2023/09/17 03:52:34;;;;;;;37.65;34.17;;;17.10;99.90;;;;;;5090288;28;20072;-71
2023/09/17 03:55:01;;;;;;;39.33;35.72;;;17.10;99.90;;;;;;5072189;28;20036;-71
2023/09/17 03:57:28;;;;;;;39.30;35.65;;;17.10;99.90;;;;;;5089178;28;20043;-71
2023/09/17 03:59:54;;;;;;;40.97;37.00;;;17.10;99.90;;;;;;5070484;28;20044;-71
2023/09/17 04:02:20;;;;;;;40.63;36.70;;;17.10;99.90;;;;;;5062229;28;20052;-71
2023/09/17 04:04:47;;;;;;;40.25;36.45;;;17.10;99.90;;;;;;5069453;28;20075;-71
2023/09/17 04:07:13;;;;;;;40.05;36.35;;;17.10;99.90;;;;;;5090610;28;20032;-71
2023/09/17 04:09:38;;;;;;;37.90;34.38;;;17.10;99.90;;;;;;5081381;28;20492;-71
2023/09/17 04:12:05;;;;;;;39.47;35.88;;;17.10;99.90;;;;;;5090485;28;20039;-71
2023/09/17 04:14:33;;;;;;;39.83;36.00;;;17.00;99.90;;;;;;5067241;28;20064;-71
2023/09/17 04:17:00;;;;;;;39.38;35.75;;;17.00;99.90;;;;;;5080075;28;20035;-71
2023/09/17 04:19:29;;;;;;;42.23;38.33;;;17.00;99.90;;;;;;5066817;28;20040;-71
2023/09/17 04:21:55;;;;;;;40.72;36.92;;;17.00;99.90;;;;;;5071552;28;20298;-71
2023/09/17 04:24:20;;;;;;;43.33;39.30;;;16.90;99.90;;;;;;5086267;28;20072;-71
2023/09/17 04:26:46;;;;;;;41.83;37.92;;;16.90;99.90;;;;;;5084233;28;20509;-71
2023/09/17 04:29:13;;;;;;;44.30;40.15;;;16.90;99.90;;;;;;5084093;28;20037;-71
2023/09/17 04:31:39;;;;;;;46.75;42.50;;;16.90;99.90;;;;;;5085787;28;20060;-71
2023/09/17 04:34:04;;;;;;;45.40;41.22;;;16.90;99.90;;;;;;5083132;28;20097;-71
2023/09/17 04:36:30;;;;;;;47.88;43.38;;;16.90;99.90;;;;;;5088834;28;20044;-71
2023/09/17 04:38:56;;;;;;;45.92;41.70;;;16.80;99.90;;;;;;5083054;28;20051;-71
2023/09/17 04:41:21;;;;;;;46.13;42.03;;;16.80;99.90;;;;;;5089907;28;20082;-71
2023/09/17 04:43:47;;;;;;;45.92;41.65;;;16.80;99.90;;;;;;5059523;28;20063;-71
2023/09/17 04:46:13;;;;;;;48.88;44.03;;;16.80;99.90;;;;;;5084632;28;20040;-71
2023/09/17 04:48:39;;;;;;;46.58;42.38;;;16.80;99.90;;;;;;5081332;28;20053;-71
2023/09/17 04:51:06;;;;;;;49.50;45.00;;;16.70;99.90;;;;;;5063865;28;20131;-71
2023/09/17 04:53:32;;;;;;;47.70;43.40;;;16.70;99.90;;;;;;5067779;28;20417;-71
2023/09/17 04:55:58;;;;;;;50.70;46.10;;;16.70;99.90;;;;;;5070111;28;20219;-71
2023/09/17 04:58:24;;;;;;;48.75;44.05;;;16.70;99.90;;;;;;5066049;28;20044;-71
2023/09/17 05:00:50;;;;;;;49.80;45.20;;;16.60;99.90;;;;;;5064656;28;20491;-71
2023/09/17 05:03:16;;;;;;;51.55;46.60;;;16.60;99.90;;;;;;5061667;28;20057;-71
2023/09/17 05:05:42;;;;;;;50.42;45.63;;;16.60;99.90;;;;;;5062893;28;20059;-71
2023/09/17 05:08:08;;;;;;;47.45;43.10;;;16.60;99.90;;;;;;5068840;28;20044;-71
2023/09/17 05:10:33;;;;;;;49.40;44.78;;;16.60;99.90;;;;;;5068579;28;20051;-71
2023/09/17 05:12:59;;;;;;;50.17;45.35;;;16.60;99.90;;;;;;5063986;28;20048;-71
2023/09/17 05:15:25;;;;;;;50.33;45.67;;;16.60;99.90;;;;;;5082641;28;20188;-71
2023/09/17 05:17:51;;;;;;;50.25;45.53;;;16.60;99.90;;;;;;5066102;28;20056;-71
2023/09/17 05:20:18;;;;;;;50.92;46.20;;;16.60;99.90;;;;;;5056094;28;20039;-71
2023/09/17 05:22:44;;;;;;;51.50;46.50;;;16.60;99.90;;;;;;5060190;28;20123;-71
2023/09/17 05:25:09;;;;;;;54.95;49.90;;;16.60;99.90;;;;;;5067441;28;20119;-71
2023/09/17 05:27:38;;;;;;;50.67;46.22;;;16.60;99.90;;;;;;5067047;28;20060;-70
2023/09/17 05:30:05;;;;;;;51.60;46.65;;;16.60;99.90;;;;;;5063616;28;20073;-71
2023/09/17 05:32:30;;;;;;;51.20;46.40;;;16.60;99.90;;;;;;5058147;28;20107;-71
2023/09/17 05:35:00;;;;;;;52.20;46.83;;;16.60;99.90;;;;;;5083498;28;20075;-71
2023/09/17 05:37:26;;;;;;;54.97;49.67;;;16.60;99.90;;;;;;5086827;28;20048;-71
2023/09/17 05:39:52;;;;;;;53.63;48.35;;;16.60;99.90;;;;;;5070969;28;20475;-71
2023/09/17 05:42:19;;;;;;;52.08;47.22;;;16.60;99.90;;;;;;5064803;28;20102;-71
2023/09/17 05:44:45;;;;;;;55.15;49.85;;;16.60;99.90;;;;;;5065128;28;20044;-71
2023/09/17 05:47:10;;;;;;;52.80;47.70;;;16.60;99.90;;;;;;5061890;28;20040;-71
2023/09/17 05:49:36;;;;;;;55.72;50.55;;;16.70;99.90;;;;;;5065671;28;20127;-71
2023/09/17 05:52:02;;;;;;;53.53;48.30;;;16.70;99.90;;;;;;5067017;28;20052;-71
2023/09/17 05:54:27;;;;;;;55.35;50.17;;;16.70;99.90;;;;;;5070766;28;20044;-71
2023/09/17 05:56:53;;;;;;;56.22;50.90;;;16.70;99.90;;;;;;5066440;28;20493;-70
2023/09/17 05:59:19;;;;;;;55.15;49.92;;;16.80;99.90;;;;;;5089674;28;20063;-71
2023/09/17 06:01:45;;;;;;;54.30;49.35;;;16.80;99.90;;;;;;5065694;28;20055;-71
2023/09/17 06:04:11;;;;;;;54.55;49.55;;;16.90;99.90;;;;;;5073638;28;20071;-71
2023/09/17 06:06:36;;;;;;;56.13;50.83;;;16.80;99.90;;;;;;5074477;28;20086;-71
2023/09/17 06:09:03;;;;;;;56.75;51.45;;;16.90;99.90;;;;;;5090061;28;20115;-71
2023/09/17 06:11:30;;;;;;;51.67;46.97;;;16.90;99.90;;;;;;5069761;28;20075;-71
2023/09/17 06:13:55;;;;;;;56.03;50.77;;;16.90;99.90;;;;;;5090258;28;20340;-71
2023/09/17 06:16:21;;;;;;;54.25;49.35;;;17.00;99.90;;;;;;5083185;28;20137;-71
2023/09/17 06:18:47;;;;;;;54.58;49.50;;;17.00;99.90;;;;;;5079592;28;20032;-71
2023/09/17 06:21:13;;;;;;;55.63;50.20;;;17.00;99.90;;;;;;5060482;28;20045;-71
2023/09/17 06:23:38;;;;;;;58.03;52.40;;;17.00;99.90;;;;;;5065143;28;20048;-71
2023/09/17 06:26:07;;;;;;;56.90;51.22;;;17.00;99.90;;;;;;5082241;28;20062;-71
2023/09/17 06:28:32;;;;;;;60.08;54.35;;;17.10;99.90;;;;;;5061508;28;20040;-71
2023/09/17 06:30:59;;;;;;;61.55;55.55;;;17.00;99.90;;;;;;5086307;28;20171;-71
2023/09/17 06:33:25;;;;;;;61.50;55.50;;;17.00;99.90;;;;;;5085239;28;20044;-72
2023/09/17 06:35:50;;;;;;;62.58;56.22;;;17.00;99.90;;;;;;5066890;28;20044;-71
2023/09/17 06:38:16;;;;;;;62.35;56.42;;;17.00;99.90;;;;;;5071678;28;20043;-71
2023/09/17 06:40:42;;;;;;;63.63;57.58;;;17.00;99.90;;;;;;5068663;28;20055;-72
2023/09/17 06:43:07;;;;;;;61.78;55.85;;;17.00;99.90;;;;;;5085084;28;20483;-70
2023/09/17 06:45:33;;;;;;;64.15;57.92;;;17.10;99.90;;;;;;5088685;28;20593;-72
2023/09/17 06:47:59;;;;;;;68.68;61.95;;;17.10;99.90;;;;;;5069741;28;20127;-72
2023/09/17 06:50:24;;;;;;;63.75;57.47;;;17.10;99.90;;;;;;5085389;28;20050;-71
2023/09/17 06:52:50;;;;;;;66.43;60.30;;;17.10;99.90;;;;;;5088274;28;20047;-72
2023/09/17 06:55:16;;;;;;;68.70;61.97;;;17.10;99.90;;;;;;5089209;28;20490;-73
2023/09/17 06:57:41;;;;;;;66.80;60.35;;;17.10;99.90;;;;;;5073111;28;20470;-73
2023/09/17 07:00:07;;;;;;;67.22;60.80;;;17.20;99.90;;;;;;5090588;28;20631;-72
2023/09/17 07:02:33;;;;;;;70.85;63.83;;;17.20;99.90;;;;;;5071725;28;20036;-75
2023/09/17 07:05:01;;;;;;;69.10;62.40;;;17.30;99.90;;;;;;5061248;28;20117;-73
2023/09/17 07:07:26;;;;;;;70.75;64.05;;;17.30;99.90;;;;;;5069126;28;20392;-73
2023/09/17 07:09:52;;;;;;;71.22;64.40;;;17.30;99.90;;;;;;5073608;28;20050;-74
2023/09/17 07:12:18;;;;;;;67.90;61.45;;;17.40;99.90;;;;;;5069274;28;20159;-73
2023/09/17 07:14:44;;;;;;;68.57;62.28;;;17.40;99.90;;;;;;5070264;28;20036;-73
2023/09/17 07:17:10;;;;;;;68.32;61.83;;;17.40;99.90;;;;;;5083217;28;20046;-73
2023/09/17 07:19:35;;;;;;;68.50;61.95;;;17.40;99.90;;;;;;5088793;28;20507;-74
2023/09/17 07:22:01;;;;;;;71.55;64.65;;;17.50;99.90;;;;;;5059961;28;20048;-74
2023/09/17 07:24:27;;;;;;;68.95;62.30;;;17.60;99.90;;;;;;5066232;28;20101;-73
2023/09/17 07:26:52;;;;;;;66.60;60.20;;;17.60;99.90;;;;;;5067044;28;20079;-75
2023/09/17 07:29:18;;;;;;;67.53;61.13;;;17.60;99.90;;;;;;5087033;28;20044;-73
2023/09/17 07:31:47;;;;;;;65.13;58.78;;;17.60;99.90;;;;;;5065679;28;20135;-74
2023/09/17 07:34:13;;;;;;;63.97;58.03;;;17.70;99.90;;;;;;5087361;28;20044;-74
2023/09/17 07:36:38;;;;;;;62.22;56.42;;;17.70;99.90;;;;;;5072206;28;20048;-75
2023/09/17 07:39:04;;;;;;;61.25;55.35;;;17.70;99.90;;;;;;5084219;28;20040;-75
2023/09/17 07:41:29;;;;;;;61.78;55.80;;;17.80;99.90;;;;;;5086141;28;20077;-75
2023/09/17 07:43:55;;;;;;;59.47;53.92;;;17.80;99.90;;;;;;5091918;28;20487;-75
2023/09/17 07:46:21;;;;;;;59.00;53.55;;;17.80;99.90;;;;;;5088506;28;20388;-75
2023/09/17 07:48:48;;;;;;;55.90;50.75;;;17.90;99.90;;;;;;5064409;28;20040;-74
2023/09/17 07:51:14;;;;;;;50.55;45.92;;;17.90;99.90;;;;;;5071814;28;20050;-75
2023/09/17 07:53:40;;;;;;;48.45;43.95;;;18.00;99.90;;;;;;5090844;28;20051;-74
2023/09/17 07:56:05;;;;;;;46.10;41.67;;;18.00;99.90;;;;;;5069402;28;20048;-73
2023/09/17 07:58:31;;;;;;;43.05;38.95;;;18.10;99.90;;;;;;5069954;28;20051;-74
2023/09/17 08:00:57;;;;;;;43.88;39.67;;;18.10;99.90;;;;;;5085909;28;20044;-74
2023/09/17 08:03:22;;;;;;;41.92;38.15;;;18.10;99.90;;;;;;5068876;28;20066;-75
2023/09/17 08:05:49;;;;;;;38.75;35.22;;;18.10;99.90;;;;;;5086255;28;20059;-75
2023/09/17 08:08:15;;;;;;;37.78;34.15;;;18.20;99.90;;;;;;5053660;28;20040;-74
2023/09/17 08:10:42;;;;;;;;;;;18.20;99.90;;;;;;5071531;28;20678;-72
2023/09/17 08:13:08;;;;;;;37.22;33.65;;;18.20;99.90;;;;;;5090888;28;19945;-74
2023/09/17 08:15:34;;;;;;;36.00;32.80;;;18.20;99.90;;;;;;5080804;28;20073;-73
2023/09/17 08:18:00;;;;;;;36.92;33.53;;;18.30;99.90;;;;;;5067341;28;20039;-78
2023/09/17 08:20:26;;;;;;;37.40;33.90;;;18.30;99.90;;;;;;5065105;28;20048;-78
2023/09/17 08:22:52;;;;;;;36.17;32.83;;;18.30;99.90;;;;;;5069481;28;20036;-76
2023/09/17 08:25:18;;;;;;;36.72;33.22;;;18.40;99.90;;;;;;5072185;28;20087;-78
2023/09/17 08:27:45;;;;;;;37.20;33.65;;;18.40;99.90;;;;;;5050179;28;20578;-78
2023/09/17 08:30:12;;;;;;;36.35;33.10;;;18.40;99.90;;;;;;5063266;28;20074;-74
2023/09/17 08:32:39;;;;;;;35.83;32.60;;;18.40;99.90;;;;;;5064587;28;20052;-77
2023/09/17 08:35:06;;;;;;;38.63;34.60;;;18.50;99.90;;;;;;5066248;28;20355;-76
2023/09/17 08:37:34;;;;;;;37.60;34.10;;;18.50;99.90;;;;;;5070244;28;20082;-76
2023/09/17 08:39:59;;;;;;;38.97;35.30;;;18.50;99.90;;;;;;5063335;28;20139;-77
2023/09/17 08:42:27;;;;;;;37.90;34.33;;;18.50;99.90;;;;;;5069154;28;20131;-77
2023/09/17 08:44:56;;;;;;;37.53;34.03;;;18.50;99.90;;;;;;5069943;28;20044;-77
2023/09/17 08:47:22;;;;;;;38.17;34.50;;;18.60;99.90;;;;;;5070191;28;20052;-76
2023/09/17 08:49:48;;;;;;;37.63;34.13;;;18.60;99.90;;;;;;5083096;28;20040;-76
2023/09/17 08:52:17;;;;;;;37.85;34.22;;;18.60;99.90;;;;;;5058394;28;20036;-77
2023/09/17 08:54:44;;;;;;;37.85;34.25;;;18.60;99.90;;;;;;5069655;28;20123;-77
2023/09/17 08:57:12;;;;;;;40.13;36.33;;;18.60;99.90;;;;;;5068220;28;20047;-71
2023/09/17 08:59:43;;;;;;;39.92;36.13;;;18.60;99.90;;;;;;5080613;28;20040;-72
2023/09/17 09:02:25;;;;;;;40.58;36.67;;;18.60;99.90;;;;;;5053485;28;20057;-75
2023/09/17 09:04:52;;;;;;;39.72;35.92;;;18.60;99.90;;;;;;5065768;28;20109;-74
2023/09/17 09:07:22;;;;;;;40.27;36.53;;;18.50;99.90;;;;;;5067303;28;20055;-74
2023/09/17 09:09:52;;;;;;;41.72;37.72;;;18.50;99.90;;;;;;5069869;28;20321;-74
2023/09/17 09:12:18;;;;;;;42.55;38.42;;;18.50;99.90;;;;;;5070384;28;20132;-75
2023/09/17 09:14:44;;;;;;;42.45;38.05;;;18.50;99.90;;;;;;5071631;28;20040;-74
2023/09/17 09:17:11;;;;;;;41.80;37.95;;;18.50;99.90;;;;;;5071930;28;20502;-74
2023/09/17 09:19:37;;;;;;;;;;;18.50;99.90;;;;;;5059985;28;20076;-74
2023/09/17 09:22:03;;;;;;;41.67;37.75;;;18.40;99.90;;;;;;5068477;28;19919;-74
2023/09/17 09:24:40;;;;;;;42.80;38.78;;;18.40;99.90;;;;;;5071429;28;20052;-73
2023/09/17 09:27:06;;;;;;;43.78;39.28;;;18.40;99.90;;;;;;5067877;28;20097;-74
2023/09/17 09:29:33;;;;;;;42.97;38.42;;;18.40;99.90;;;;;;5065670;28;20052;-73
2023/09/17 09:31:59;;;;;;;42.22;37.90;;;18.40;99.90;;;;;;5071414;28;20048;-73
2023/09/17 09:34:25;;;;;;;44.03;39.67;;;18.50;99.90;;;;;;5071311;28;20073;-74
2023/09/17 09:36:51;;;;;;;44.40;40.10;;;18.50;99.90;;;;;;5064682;28;20055;-73
2023/09/17 09:39:17;;;;;;;45.15;40.58;;;18.60;99.90;;;;;;5068713;28;20067;-73
2023/09/17 09:41:43;;;;;;;44.78;40.40;;;18.60;99.90;;;;;;5071727;28;20048;-73
2023/09/17 09:44:09;;;;;;;43.85;39.45;;;18.70;99.90;;;;;;5071700;28;20051;-73
2023/09/17 09:46:36;;;;;;;43.58;39.45;;;18.80;99.90;;;;;;5089579;28;20540;-73
2023/09/17 09:49:02;;;;;;;43.90;39.75;;;18.90;99.90;;;;;;5070600;28;20044;-74
2023/09/17 09:51:30;;;;;;;44.83;40.28;;;18.90;99.90;;;;;;5067569;28;20043;-74
2023/09/17 09:53:56;;;;;;;43.85;39.25;;;19.00;99.90;;;;;;5064788;28;20072;-74
2023/09/17 09:56:27;;;;;;;43.95;39.50;;;19.00;99.90;;;;;;5087958;28;20044;-74
2023/09/17 09:58:57;;;;;;;42.13;38.17;;;19.10;99.90;;;;;;5071590;28;20078;-74
2023/09/17 10:01:23;;;;;;;43.90;39.45;;;19.10;99.90;;;;;;5069750;28;20048;-74
2023/09/17 10:03:50;;;;;;;42.47;38.42;;;19.10;99.90;;;;;;5057170;28;20064;-74
2023/09/17 10:06:16;;;;;;;38.38;34.72;;;19.20;99.90;;;;;;5051403;28;20044;-74
2023/09/17 10:08:42;;;;;;;43.35;39.08;;;19.20;99.90;;;;;;5064261;28;20044;-74
2023/09/17 10:11:08;;;;;;;39.53;35.60;;;19.30;99.90;;;;;;5055040;28;20048;-71
2023/09/17 10:13:34;;;;;;;40.40;36.25;;;19.40;99.90;;;;;;5055188;28;20438;-73
2023/09/17 10:16:02;;;;;;;38.90;35.00;;;19.60;99.90;;;;;;5064179;28;20044;-74
2023/09/17 10:18:30;;;;;;;37.17;33.67;;;19.70;99.90;;;;;;5069888;28;20488;-74
2023/09/17 10:20:57;;;;;;;37.63;33.83;;;19.90;99.90;;;;;;5069926;28;20047;-74
2023/09/17 10:23:24;;;;;;;36.42;32.78;;;20.00;99.90;;;;;;5053219;28;20043;-73
2023/09/17 10:25:51;;;;;;;36.63;33.20;;;20.00;99.90;;;;;;5068625;28;20062;-72
2023/09/17 10:28:18;;;;;;;34.67;31.33;;;20.10;99.90;;;;;;5063113;28;20044;-75
2023/09/17 10:30:45;;;;;;;;;;;20.10;99.90;;;;;;5067764;28;20539;-72
2023/09/17 10:33:13;;;;;;;37.45;33.85;;;20.10;99.90;;;;;;5066728;28;20042;-71
2023/09/17 10:35:40;;;;;;;38.70;34.95;;;20.10;99.90;;;;;;5065514;28;20767;-70
2023/09/17 10:38:07;;;;;;;35.55;31.88;;;20.10;99.90;;;;;;5070472;28;20070;-71
2023/09/17 10:40:37;;;;;;;36.28;32.88;;;20.10;99.90;;;;;;5071763;28;20040;-72
2023/09/17 10:43:04;;;;;;;35.08;31.60;;;20.10;99.90;;;;;;5070460;28;20040;-72
2023/09/17 10:45:34;;;;;;;38.70;35.00;;;20.10;99.90;;;;;;5087635;28;20051;-73
2023/09/17 10:48:02;;;;;;;39.38;35.58;;;20.00;99.90;;;;;;5070560;28;20051;-73
2023/09/17 10:50:28;;;;;;;36.60;33.15;;;20.00;99.90;;;;;;5061211;28;20048;-71
2023/09/17 10:52:54;;;;;;;36.77;33.23;;;20.00;99.90;;;;;;5068568;28;20386;-71
2023/09/17 10:55:22;;;;;;;35.33;31.90;;;19.90;99.90;;;;;;5068351;28;20040;-71
2023/09/17 10:57:54;;;;;;;37.88;34.28;;;20.00;99.90;;;;;;5065133;28;20055;-73
2023/09/17 11:00:22;;;;;;;34.40;30.98;;;20.00;99.90;;;;;;5071335;28;20078;-72
2023/09/17 11:02:57;;;;;;;37.25;33.83;;;20.20;99.90;;;;;;5064712;28;20351;-72
2023/09/17 11:05:26;;;;;;;36.15;32.85;;;20.30;99.90;;;;;;5088595;28;20062;-73
2023/09/17 11:07:54;;;;;;;36.55;33.03;;;20.40;99.90;;;;;;5065517;28;20048;-73
2023/09/17 11:10:20;;;;;;;36.72;33.28;;;20.50;99.90;;;;;;5072273;28;20040;-72
2023/09/17 11:12:47;;;;;;;37.55;33.95;;;20.50;99.90;;;;;;5057577;28;20722;-73
2023/09/17 11:15:13;;;;;;;38.30;34.75;;;20.60;99.90;;;;;;5080742;28;20051;-75
2023/09/17 11:17:40;;;;;;;38.17;34.50;;;20.70;99.90;;;;;;5067778;28;20044;-72
2023/09/17 11:20:13;;;;;;;37.92;34.42;;;20.70;99.90;;;;;;5065171;28;20614;-73
2023/09/17 11:22:41;;;;;;;37.47;33.95;;;20.80;99.90;;;;;;5089208;28;20090;-73
2023/09/17 11:25:10;;;;;;;36.60;33.17;;;20.80;99.90;;;;;;5072334;28;20051;-73
2023/09/17 11:27:49;;;;;;;37.78;34.17;;;20.90;99.90;;;;;;5060247;28;20432;-73
2023/09/17 11:30:22;;;;;;;35.75;32.25;;;21.00;99.90;;;;;;5065003;28;20186;-73
2023/09/17 11:32:55;;;;;;;35.40;32.20;;;21.10;99.90;;;;;;5052433;28;20036;-72
2023/09/17 11:35:22;;;;;;;35.65;32.17;;;21.20;99.90;;;;;;5064049;28;20156;-72
2023/09/17 11:37:49;;;;;;;33.33;30.23;;;21.20;99.90;;;;;;5059179;28;20048;-75
2023/09/17 11:40:16;;;;;;;35.13;31.83;;;21.30;99.90;;;;;;5046634;28;20042;-74
2023/09/17 11:42:43;;;;;;;34.47;31.23;;;21.30;99.90;;;;;;5057310;28;20047;-74
2023/09/17 11:45:10;;;;;;;32.88;29.77;;;21.40;99.90;;;;;;5059948;28;20060;-74
2023/09/17 11:47:36;;;;;;;33.45;30.25;;;21.50;99.90;;;;;;5075417;28;20028;-74
2023/09/17 11:50:05;;;;;;;31.30;28.42;;;21.60;99.90;;;;;;5072422;28;20074;-76
2023/09/17 11:52:31;;;;;;;30.05;27.25;;;21.60;99.90;;;;;;5071445;28;20057;-74
2023/09/17 11:55:04;;;;;;;29.40;26.60;;;21.70;99.90;;;;;;5067219;28;20072;-73
2023/09/17 11:57:30;;;;;;;28.48;25.75;;;21.80;99.90;;;;;;5075965;28;20044;-78
2023/09/17 11:59:56;;;;;;;28.50;25.83;;;21.80;99.90;;;;;;5071027;28;20186;-78
2023/09/17 12:02:22;;;;;;;30.10;27.10;;;21.90;99.90;;;;;;5067221;28;20138;-72
2023/09/17 12:04:50;;;;;;;28.23;25.63;;;22.00;99.90;;;;;;5070437;28;20063;-71
2023/09/17 12:07:15;;;;;;;29.33;26.58;;;22.10;99.90;;;;;;5069024;28;20051;-73
2023/09/17 12:12:18;;;;;;;26.55;24.08;;;22.10;99.90;;;;;;5063963;28;20135;-75
2023/09/17 12:14:46;;;;;;;26.13;23.67;;;22.10;99.90;;;;;;5061594;28;20044;-75
2023/09/17 12:17:12;;;;;;;27.42;24.80;;;22.20;99.90;;;;;;5071681;28;20118;-74
2023/09/17 12:19:38;;;;;;;26.73;24.20;;;22.20;99.90;;;;;;5071541;28;20044;-74
2023/09/17 12:22:08;;;;;;;26.90;24.33;;;22.30;99.90;;;;;;5069580;28;20780;-75
2023/09/17 12:24:35;;;;;;;24.58;22.38;;;22.30;99.90;;;;;;5070029;28;20047;-75
2023/09/17 12:27:35;;;;;;;26.50;23.98;;;22.40;99.90;;;;;;5086035;28;20040;-75
2023/09/17 12:30:06;;;;;;;25.98;23.52;;;22.40;99.90;;;;;;5067737;28;20043;-76